Airfield :
LOGIN :

Register | Disclaimer

   EN    FR    IT 

 










Legend :    VFR   Marginal VFR   IFR   Intensive IFR   Very Intensive IFR
Visi :
Ceiling :
>= 8 km
>= 3000ft
5 to 8 km
1000 to 3000 ft
1500m to 5 km
500 to 1000 ft
800 to 1500m
200 to 500 ft
< 800m
< 200 ft
Symbols :   Thunderstorms  Fog  Heavy snow  Heavy precipitations  Wind > 20 kt
SIGMETs :     Misc.  Thunderstorms  Icing  Turbulence  Mountain Waves  Volcanic Ashes







- Airport Elevation : 622 ft
- IATA code : BRS
- Download approach charts


EGGD - Bristol Int.

CURRENT METAR :
  • 260920Z 23011KT 6000 VCSH BKN004 14/13 Q1015

EXPIRED METARs :
  • 260850Z 26009KT 9000 4000NE -DZ OVC003 13/12 Q1015
  • 260820Z 25011KT 9999 8000E OVC002 13/12 Q1015
  • 260750Z AUTO 26012KT 9999 OVC002 13/12 Q1016
  • 260720Z AUTO 26013KT 9999 OVC002 12/12 Q1016
  • 260650Z 26013KT 8000 BKN002 12/12 Q1016

TAF AMD TAF EGGD
Valid from the 26 at 08:00 until the 27 at 06:00 UTC


260758Z 2608/2706 25012KT 9999 OVC002
TEMPO 2608/2615 3000 RADZ BR OVC001
PROB40
TEMPO 2608/2615 0300 FG
PROB30
TEMPO 2608/2617 25015G25KT
BECMG 2614/2617 SCT025
ATIS : +44 1275 473 666
No reported NOTAMs for that airfield.



MET'MAP, your aeronautical weather chart ! - Copyright ORBIFLY December 2007 - Disclaimer

ORBIFLY MET'MAP TEAM :

Programming & Development : Alexandra Zaïnal
Concept & Development : Baudouin d'Aumeries
Co-Development & Prog : Marc-Olivier Méhu
Technical & hardware support : Manuel Goepfert

Contact : metmap@orbifly.com




SOURCES & CREDITS :

   NOAA